Aransas Pass — WDF5061 — position and weather

sailwx.info

Track history (hours):
 
Tides and Currents Weather Stations Pressure Air Temp Water Temp Dewpoint Dewpoint Depression Visibility Wind Speed Wind Dir Waves Ship Positions

Aransas Pass

Owner: Higman Barge Lines, Inc., Orange, TX. More information available from US FCC via Universal Licensing System and Coast Guard Vessel Documentation Center.

Last reported at 2017-Mar-24 01:32 UTC. Time now 2017-Mar-24 18:04 UTC.
Position N 30°04' W 093°34'.

Length 26 m; draft 3 m.

Type: Towing. MMSI: 367458930.

Date/timePositionNaut miles runAvg speedWind from/ knotsBaromVisibWave heightAir tempDewpointWater temp
2017-Mar-24 01:32N 30°04' W 093°34'5 4.7
2017-Mar-24 00:33N 30°04' W 093°29'4 4.5
2017-Mar-23 23:33N 30°04' W 093°24'4 3.9
2017-Mar-23 22:33N 30°05' W 093°20'4 4.2
2017-Mar-23 21:33N 30°09' W 093°20'4 4.4
2017-Mar-23 20:33N 30°12' W 093°16'1 0.6
2017-Mar-23 19:33N 30°13' W 093°16'1 0.8
2017-Mar-23 18:33N 30°14' W 093°15'0 0.0
2017-Mar-23 17:33N 30°14' W 093°15'0 0.0
2017-Mar-23 16:32N 30°14' W 093°15'0 0.0
2017-Mar-23 15:27N 30°14' W 093°15'0 0.0
2017-Mar-23 12:19N 30°14' W 093°15'0 0.0
2017-Mar-23 11:33N 30°14' W 093°15'0 0.0
2017-Mar-23 09:20N 30°14' W 093°15'0 0.0
2017-Mar-23 08:15N 30°14' W 093°15'0 0.0
2017-Mar-23 07:32N 30°14' W 093°15'0 0.0
2017-Mar-23 05:23N 30°14' W 093°15'0 0.0
2017-Mar-23 03:33N 30°14' W 093°15'0 0.0
2017-Mar-23 02:31N 30°14' W 093°15'0 0.0
2017-Mar-23 01:29N 30°14' W 093°15'0 0.0
2017-Mar-23 00:33N 30°14' W 093°15'0 0.0
2017-Mar-22 23:33N 30°14' W 093°15'0 0.0
2017-Mar-22 22:33N 30°14' W 093°15'0 0.0
2017-Mar-22 21:33N 30°14' W 093°15'0 0.0
2017-Mar-22 20:33N 30°14' W 093°15'0 0.0
2017-Mar-22 19:33N 30°14' W 093°15'0 0.0
2017-Mar-22 18:32N 30°14' W 093°15'1 0.6
2017-Mar-22 17:33N 30°13' W 093°16'0 0.0
2017-Mar-22 16:33N 30°14' W 093°16'0 0.0
2017-Mar-22 15:33N 30°14' W 093°16'0 0.2
2017-Mar-22 14:33N 30°13' W 093°16'0 0.0
2017-Mar-22 13:33N 30°13' W 093°16'0 0.0
2017-Mar-22 12:33N 30°13' W 093°16'0 0.0
2017-Mar-22 11:33N 30°13' W 093°16'0 0.0
2017-Mar-22 10:33N 30°13' W 093°16'0 0.0
2017-Mar-22 09:33N 30°13' W 093°16'0 0.0
2017-Mar-22 08:33N 30°13' W 093°16'0 0.0
2017-Mar-22 07:33N 30°13' W 093°16'0 0.2
2017-Mar-22 06:33N 30°13' W 093°16'5 4.5
2017-Mar-22 05:33N 30°10' W 093°19'5 5.3
2017-Mar-22 04:33N 30°04' W 093°20'5 5.0
2017-Mar-22 03:33N 30°04' W 093°26'4 0.3
2017-Mar-21 14:33N 30°04' W 093°31'5 4.9
2017-Mar-21 13:33N 30°04' W 093°25'1 0.8
2017-Mar-21 12:33N 30°04' W 093°24'  
Track history (hours):
 
Tides and Currents Weather Stations Pressure Air Temp Water Temp Dewpoint Dewpoint Depression Visibility Wind Speed Wind Dir Waves Ship Positions

Aransas Pass

Owner: Higman Barge Lines, Inc., Orange, TX. More information available from US FCC via Universal Licensing System and Coast Guard Vessel Documentation Center.

Last reported at 2017-Mar-24 01:32 UTC. Time now 2017-Mar-24 18:04 UTC.
Position N 30°04' W 093°34'.

Length 26 m; draft 3 m.

Type: Towing. MMSI: 367458930.

Date/timePositionNaut miles runAvg speedWind from/ knotsBaromVisibWave heightAir tempDewpointWater temp
2017-Mar-24 01:32N 30°04' W 093°34'5 4.7
2017-Mar-24 00:33N 30°04' W 093°29'4 4.5
2017-Mar-23 23:33N 30°04' W 093°24'4 3.9
2017-Mar-23 22:33N 30°05' W 093°20'4 4.2
2017-Mar-23 21:33N 30°09' W 093°20'4 4.4
2017-Mar-23 20:33N 30°12' W 093°16'1 0.6
2017-Mar-23 19:33N 30°13' W 093°16'1 0.8
2017-Mar-23 18:33N 30°14' W 093°15'0 0.0
2017-Mar-23 17:33N 30°14' W 093°15'0 0.0
2017-Mar-23 16:32N 30°14' W 093°15'0 0.0
2017-Mar-23 15:27N 30°14' W 093°15'0 0.0
2017-Mar-23 12:19N 30°14' W 093°15'0 0.0
2017-Mar-23 11:33N 30°14' W 093°15'0 0.0
2017-Mar-23 09:20N 30°14' W 093°15'0 0.0
2017-Mar-23 08:15N 30°14' W 093°15'0 0.0
2017-Mar-23 07:32N 30°14' W 093°15'0 0.0
2017-Mar-23 05:23N 30°14' W 093°15'0 0.0
2017-Mar-23 03:33N 30°14' W 093°15'0 0.0
2017-Mar-23 02:31N 30°14' W 093°15'0 0.0
2017-Mar-23 01:29N 30°14' W 093°15'0 0.0
2017-Mar-23 00:33N 30°14' W 093°15'0 0.0
2017-Mar-22 23:33N 30°14' W 093°15'0 0.0
2017-Mar-22 22:33N 30°14' W 093°15'0 0.0
2017-Mar-22 21:33N 30°14' W 093°15'0 0.0
2017-Mar-22 20:33N 30°14' W 093°15'0 0.0
2017-Mar-22 19:33N 30°14' W 093°15'0 0.0
2017-Mar-22 18:32N 30°14' W 093°15'1 0.6
2017-Mar-22 17:33N 30°13' W 093°16'0 0.0
2017-Mar-22 16:33N 30°14' W 093°16'0 0.0
2017-Mar-22 15:33N 30°14' W 093°16'0 0.2
2017-Mar-22 14:33N 30°13' W 093°16'0 0.0
2017-Mar-22 13:33N 30°13' W 093°16'0 0.0
2017-Mar-22 12:33N 30°13' W 093°16'0 0.0
2017-Mar-22 11:33N 30°13' W 093°16'0 0.0
2017-Mar-22 10:33N 30°13' W 093°16'0 0.0
2017-Mar-22 09:33N 30°13' W 093°16'0 0.0
2017-Mar-22 08:33N 30°13' W 093°16'0 0.0
2017-Mar-22 07:33N 30°13' W 093°16'0 0.2
2017-Mar-22 06:33N 30°13' W 093°16'5 4.5
2017-Mar-22 05:33N 30°10' W 093°19'5 5.3
2017-Mar-22 04:33N 30°04' W 093°20'5 5.0
2017-Mar-22 03:33N 30°04' W 093°26'4 0.3
2017-Mar-21 14:33N 30°04' W 093°31'5 4.9
2017-Mar-21 13:33N 30°04' W 093°25'1 0.8
2017-Mar-21 12:33N 30°04' W 093°24'  

Dump ship's entire track history